.
WxDataArchive / Data Records for 2013-08-16
2013-08-15 August 2013 2013-08-17

Data Records for Friday, 16 August 2013

Time	Temp	Chill	HIndex	Humid	Dewpt	 Wind 	HiWind	WindDir	Rain 	Barom 
-----	----	-----	------	-----	-----	------	------	-------	-----	----- 
00:00	59.0	59.0	59.0	82	53.5	0	0	---	0.00	30.110 
00:05	58.9	58.9	58.9	82	53.4	0	0	---	0.00	30.110 
00:10	58.7	58.7	58.7	83	53.5	0	0	---	0.00	30.110 
00:15	58.6	58.6	58.6	83	53.4	0	0	---	0.00	30.114 
00:20	58.6	58.6	58.6	84	53.8	0	0	---	0.00	30.114 
00:25	58.4	58.4	58.4	84	53.6	0	0	---	0.00	30.114 
00:30	58.3	58.3	58.3	85	53.8	0	0	---	0.00	30.117 
00:35	58.1	58.1	58.1	85	53.6	0	0	---	0.00	30.117 
00:40	57.8	57.8	57.8	86	53.6	0	0	---	0.00	30.117 
00:45	57.6	57.6	57.6	86	53.4	0	0	---	0.00	30.117 
00:50	57.6	57.6	57.6	86	53.4	0	0	---	0.00	30.117 
00:55	57.5	57.5	57.5	86	53.3	0	0	---	0.00	30.117 
01:00	57.5	57.5	57.5	87	53.7	0	0	---	0.00	30.118 
01:05	57.5	57.5	57.5	87	53.7	0	0	---	0.00	30.118 
01:10	57.5	57.5	57.5	87	53.7	0	0	---	0.00	30.118 
01:15	57.5	57.5	57.5	87	53.7	0	0	---	0.00	30.111 
01:20	57.5	57.5	57.5	87	53.7	0	0	---	0.00	30.111 
01:25	57.5	57.5	57.5	87	53.7	0	0	---	0.00	30.111 
01:30	57.5	57.5	57.5	87	53.7	0	0	---	0.00	30.117 
01:35	57.5	57.5	57.5	87	53.7	0	0	---	0.00	30.117 
01:40	57.5	57.5	57.5	88	54.0	0	0	---	0.00	30.117 
01:45	57.6	57.6	57.6	88	54.1	0	0	---	0.00	30.114 
01:50	57.6	57.6	57.6	88	54.1	0	0	---	0.00	30.114 
01:55	57.8	57.8	57.8	88	54.3	0	0	---	0.00	30.114 
02:00	57.8	57.8	57.8	88	54.3	0	0	---	0.00	30.110 
02:05	57.8	57.8	57.8	88	54.3	0	0	---	0.00	30.110 
02:10	58.0	58.0	58.0	88	54.5	0	0	---	0.00	30.110 
02:15	58.0	58.0	58.0	88	54.5	0	0	---	0.00	30.107 
02:20	57.8	57.8	57.8	88	54.3	0	0	---	0.00	30.107 
02:25	57.8	57.8	57.8	88	54.3	0	0	---	0.00	30.107 
02:30	57.8	57.8	57.8	88	54.3	0	0	---	0.00	30.113 
02:35	57.8	57.8	57.8	88	54.3	0	0	---	0.00	30.113 
02:40	57.6	57.6	57.6	88	54.1	0	0	---	0.00	30.113 
02:45	57.6	57.6	57.6	88	54.1	0	0	---	0.00	30.111 
02:50	57.6	57.6	57.6	88	54.1	0	0	---	0.00	30.111 
02:55	57.6	57.6	57.6	88	54.1	0	0	---	0.00	30.111 
03:00	57.6	57.6	57.6	88	54.1	0	0	---	0.00	30.116 
03:05	57.6	57.6	57.6	88	54.1	0	0	---	0.00	30.116 
03:10	57.6	57.6	57.6	88	54.1	0	0	---	0.00	30.116 
03:15	57.6	57.6	57.6	88	54.1	0	0	---	0.00	30.122 
03:20	57.6	57.6	57.6	89	54.4	0	0	---	0.00	30.122 
03:25	57.6	57.6	57.6	89	54.4	0	0	---	0.00	30.122 
03:30	57.6	57.6	57.6	89	54.4	0	0	---	0.00	30.122 
03:35	57.6	57.6	57.6	89	54.4	0	0	---	0.00	30.122 
03:40	57.8	57.8	57.8	89	54.6	0	0	---	0.00	30.122 
03:45	57.8	57.8	57.8	89	54.6	0	0	---	0.00	30.122 
03:50	57.8	57.8	57.8	89	54.6	0	0	---	0.00	30.122 
03:55	58.0	58.0	58.0	89	54.8	0	0	---	0.00	30.122 
04:00	58.0	58.0	58.0	89	54.8	0	0	---	0.00	30.122 
04:05	58.1	58.1	58.1	89	54.9	0	0	---	0.00	30.122 
04:10	58.1	58.1	58.1	89	54.9	0	0	---	0.00	30.122 
04:15	58.3	58.3	58.3	89	55.1	0	0	---	0.00	30.118 
04:20	58.3	58.3	58.3	89	55.1	0	0	---	0.00	30.118 
04:25	58.3	58.3	58.3	89	55.1	0	0	---	0.00	30.118 
04:30	58.3	58.3	58.3	89	55.1	0	0	---	0.00	30.117 
04:35	58.4	58.4	58.4	89	55.2	0	0	---	0.00	30.117 
04:40	58.4	58.4	58.4	89	55.2	0	0	---	0.00	30.117 
04:45	58.3	58.3	58.3	89	55.1	0	0	---	0.00	30.117 
04:50	58.3	58.3	58.3	89	55.1	0	0	---	0.00	30.117 
04:55	58.3	58.3	58.3	89	55.1	0	0	---	0.00	30.117 
05:00	58.3	58.3	58.3	89	55.1	0	0	---	0.00	30.116 
05:05	58.1	58.1	58.1	89	54.9	0	0	---	0.00	30.116 
05:10	58.1	58.1	58.1	89	54.9	0	0	---	0.00	30.116 
05:15	58.0	58.0	58.0	89	54.8	0	0	---	0.00	30.117 
05:20	57.8	57.8	57.8	89	54.6	0	0	---	0.00	30.117 
05:25	57.6	57.6	57.6	89	54.4	0	0	---	0.00	30.117 
05:30	57.6	57.6	57.6	89	54.4	0	0	---	0.00	30.120 
05:35	57.5	57.5	57.5	89	54.3	0	0	---	0.00	30.120 
05:40	57.3	57.3	57.3	90	54.4	0	0	---	0.00	30.120 
05:45	57.3	57.3	57.3	90	54.4	0	0	---	0.00	30.117 
05:50	57.3	57.3	57.3	90	54.4	0	0	---	0.00	30.117 
05:55	57.2	57.2	57.2	90	54.3	0	0	---	0.00	30.117 
06:00	57.2	57.2	57.2	90	54.3	0	0	---	0.00	30.119 
06:05	57.0	57.0	57.0	90	54.1	0	0	---	0.00	30.119 
06:10	56.9	56.9	56.9	90	54.0	0	0	---	0.00	30.119 
06:15	56.7	56.7	56.7	90	53.8	0	0	---	0.00	30.119 
06:20	56.6	56.6	56.6	90	53.7	0	0	---	0.00	30.119 
06:25	56.5	56.5	56.5	91	53.9	0	0	---	0.00	30.119 
06:30	56.3	56.3	56.3	91	53.7	0	0	---	0.00	30.122 
06:35	56.3	56.3	56.3	91	53.7	0	0	---	0.00	30.122 
06:40	56.2	56.2	56.2	91	53.6	0	0	---	0.00	30.122 
06:45	56.2	56.2	56.2	91	53.6	0	0	---	0.00	30.127 
06:50	56.0	56.0	56.0	91	53.4	0	0	---	0.00	30.127 
06:55	56.0	56.0	56.0	91	53.4	0	0	---	0.00	30.127 
07:00	56.0	56.0	56.0	92	53.7	0	0	---	0.00	30.131 
07:05	55.9	55.9	55.9	92	53.6	0	0	---	0.00	30.131 
07:10	55.9	55.9	55.9	92	53.6	0	0	---	0.00	30.131 
07:15	56.0	56.0	56.0	92	53.7	0	0	---	0.00	30.132 
07:20	56.0	56.0	56.0	92	53.7	0	0	---	0.00	30.132 
07:25	56.2	56.2	56.2	92	53.9	0	0	---	0.00	30.132 
07:30	56.3	56.3	56.3	92	54.0	0	0	---	0.00	30.131 
07:35	56.3	56.3	56.3	92	54.0	0	0	---	0.00	30.131 
07:40	56.6	56.6	56.6	92	54.3	0	0	---	0.00	30.131 
07:45	56.9	56.9	56.9	93	54.9	0	0	---	0.00	30.134 
07:50	57.2	57.2	57.2	93	55.2	0	0	---	0.00	30.134 
07:55	57.5	57.5	57.5	93	55.5	0	0	---	0.00	30.134 
08:00	58.1	58.1	58.1	93	56.1	0	0	---	0.00	30.137 
08:05	58.4	58.4	58.4	93	56.4	0	0	---	0.00	30.137 
08:10	58.9	58.9	58.9	92	56.6	0	0	---	0.00	30.137 
08:15	59.2	59.2	59.2	92	56.9	0	0	---	0.00	30.142 
08:20	59.6	59.6	59.6	92	57.3	0	0	---	0.00	30.142 
08:25	59.9	59.9	59.9	91	57.3	0	1	45	0.00	30.142 
08:30	60.2	60.2	60.2	89	56.9	0	1	45	0.00	30.144 
08:35	60.5	60.5	60.5	87	56.6	0	1	45	0.00	30.144 
08:40	60.9	60.9	60.9	86	56.7	0	0	---	0.00	30.144 
08:45	61.2	61.2	61.2	85	56.6	0	0	---	0.00	30.148 
08:50	61.3	61.3	61.3	84	56.4	0	0	---	0.00	30.148 
08:55	61.6	61.6	61.6	84	56.7	0	0	---	0.00	30.148 
09:00	61.8	61.8	61.8	83	56.6	0	0	---	0.00	30.153 
09:05	62.3	62.3	62.3	82	56.7	0	3	68	0.00	30.153 
09:10	62.9	62.9	62.9	81	57.0	0	3	68	0.00	30.153 
09:15	63.5	63.5	63.5	80	57.2	0	2	68	0.00	30.158 
09:20	64.2	64.2	64.2	80	57.9	0	3	68	0.00	30.158 
09:25	64.8	64.8	64.8	77	57.4	0	2	68	0.00	30.158 
09:30	65.6	65.6	65.6	76	57.8	1	3	68	0.00	30.158 
09:35	66.0	66.0	66.0	72	56.7	1	3	68	0.00	30.158 
09:40	66.4	66.4	66.4	73	57.5	1	3	68	0.00	30.158 
09:45	66.6	66.6	66.6	71	56.9	0	2	68	0.00	30.159 
09:50	67.3	67.3	67.3	70	57.2	1	3	68	0.00	30.159 
09:55	67.6	67.6	67.6	67	56.2	0	2	68	0.00	30.159 
10:00	67.9	67.9	67.9	69	57.3	0	1	68	0.00	30.160 
10:05	68.4	68.4	68.4	66	56.6	1	4	68	0.00	30.160 
10:10	68.4	68.4	68.4	65	56.2	2	4	90	0.00	30.160 
10:15	68.3	68.3	68.3	67	56.9	1	3	90	0.00	30.165 
10:20	68.1	68.1	68.1	66	56.3	0	1	90	0.00	30.165 
10:25	67.9	67.9	67.9	67	56.5	0	1	90	0.00	30.165 
10:30	67.9	67.9	67.9	66	56.1	0	3	90	0.00	30.169 
10:35	68.1	68.1	68.1	65	55.9	0	2	90	0.00	30.169 
10:40	68.3	68.3	68.3	63	55.2	1	3	90	0.00	30.169 
10:45	68.9	68.9	68.9	65	56.6	0	3	90	0.00	30.167 
10:50	69.3	69.3	69.3	62	55.7	0	2	90	0.00	30.167 
10:55	69.9	69.9	69.9	60	55.4	1	3	90	0.00	30.167 
11:00	70.6	70.6	70.6	59	55.6	1	4	68	0.00	30.168 
11:05	71.3	71.3	71.3	61	57.1	1	3	68	0.00	30.168 
11:10	71.6	71.6	71.6	56	55.1	1	3	68	0.00	30.168 
11:15	71.8	71.8	71.8	54	54.2	2	5	90	0.00	30.167 
11:20	71.8	71.8	71.8	54	54.2	1	4	90	0.00	30.167 
11:25	72.1	72.1	72.1	57	56.0	1	4	90	0.00	30.167 
11:30	72.7	72.7	72.7	57	56.6	1	3	90	0.00	30.162 
11:35	72.8	72.8	72.8	53	54.7	1	4	90	0.00	30.162 
11:40	73.0	73.0	73.0	52	54.3	2	6	90	0.00	30.162 
11:45	72.8	72.8	72.8	54	55.2	2	5	90	0.00	30.165 
11:50	73.2	73.2	73.2	55	56.0	1	5	90	0.00	30.165 
11:55	73.9	73.9	73.9	55	56.7	0	2	90	0.00	30.165 
12:00	74.4	74.4	74.4	51	55.1	2	4	90	0.00	30.164 
12:05	74.7	74.7	74.7	52	55.9	1	4	90	0.00	30.164 
12:10	74.6	74.6	74.6	48	53.6	2	7	112	0.00	30.164 
12:15	74.9	74.9	74.9	52	56.1	1	3	112	0.00	30.162 
12:20	75.3	75.3	77.7	48	54.2	2	4	112	0.00	30.162 
12:25	75.3	75.3	77.7	47	53.7	1	5	112	0.00	30.162 
12:30	75.1	75.1	77.6	45	52.3	3	6	112	0.00	30.162 
12:35	74.6	74.6	74.6	51	55.3	1	4	112	0.00	30.162 
12:40	74.7	74.7	74.7	46	52.5	3	5	90	0.00	30.162 
12:45	74.9	74.9	74.9	49	54.4	1	3	90	0.00	30.161 
12:50	75.4	75.4	77.8	46	53.2	1	5	90	0.00	30.161 
12:55	75.6	75.6	77.8	46	53.3	0	2	90	0.00	30.161 
13:00	75.6	75.6	77.8	46	53.3	1	5	90	0.00	30.157 
13:05	75.8	75.8	77.8	42	51.1	2	6	90	0.00	30.157 
13:10	75.8	75.8	77.9	44	52.3	1	3	90	0.00	30.157 
13:15	76.0	76.0	77.9	43	51.9	1	5	90	0.00	30.155 
13:20	76.3	76.3	78.1	45	53.4	1	2	90	0.00	30.155 
13:25	76.7	76.7	78.3	44	53.1	0	3	90	0.00	30.155 
13:30	77.0	77.0	78.4	44	53.4	1	4	90	0.00	30.152 
13:35	77.0	77.0	78.4	45	54.0	0	2	90	0.00	30.152 
13:40	76.7	76.7	78.3	45	53.7	1	4	90	0.00	30.152 
13:45	75.8	75.8	77.9	46	53.5	1	4	90	0.00	30.150 
13:50	76.0	76.0	78.0	44	52.5	1	5	90	0.00	30.150 
13:55	76.3	76.3	78.0	43	52.1	0	2	90	0.00	30.150 
14:00	76.0	76.0	77.9	43	51.9	1	4	90	0.00	30.150 
14:05	75.1	75.1	77.6	44	51.7	0	3	90	0.00	30.150 
14:10	74.4	74.4	74.4	45	51.7	0	4	90	0.00	30.150 
14:15	74.4	74.4	74.4	47	52.8	0	2	90	0.00	30.150 
14:20	74.9	74.9	74.9	44	51.5	0	2	90	0.00	30.150 
14:25	75.4	75.4	77.8	47	53.7	0	3	90	0.00	30.150 
14:30	76.5	76.5	78.1	43	52.3	0	3	90	0.00	30.147 
14:35	77.4	77.4	78.6	43	53.1	1	5	90	0.00	30.147 
14:40	77.2	77.2	78.4	42	52.3	2	6	90	0.00	30.147 
14:45	76.5	76.5	78.1	43	52.3	0	2	90	0.00	30.146 
14:50	76.0	76.0	78.0	45	53.1	1	4	90	0.00	30.146 
14:55	76.3	76.3	78.0	43	52.1	1	6	90	0.00	30.146 
15:00	76.7	76.7	78.3	44	53.1	1	3	90	0.00	30.144 
15:05	76.3	76.3	78.1	45	53.4	1	4	90	0.00	30.144 
15:10	75.8	75.8	77.9	45	52.9	1	3	90	0.00	30.144 
15:15	75.3	75.3	77.7	44	51.9	1	4	90	0.00	30.144 
15:20	74.7	74.7	74.7	45	51.9	2	4	90	0.00	30.144 
15:25	74.4	74.4	74.4	43	50.4	1	4	90	0.00	30.144 
15:30	74.2	74.2	74.2	46	52.1	2	5	90	0.00	30.145 
15:35	74.9	74.9	74.9	45	52.1	0	3	90	0.00	30.145 
15:40	75.6	75.6	77.7	41	50.2	1	4	90	0.00	30.145 
15:45	76.3	76.3	78.0	43	52.1	0	3	90	0.00	30.138 
15:50	76.8	76.8	78.1	40	50.6	0	2	90	0.00	30.138 
15:55	76.8	76.8	78.2	41	51.3	2	6	90	0.00	30.138 
16:00	77.0	77.0	78.4	44	53.4	1	4	90	0.00	30.135 
16:05	77.0	77.0	78.3	41	51.5	1	4	90	0.00	30.135 
16:10	77.0	77.0	78.4	43	52.8	1	6	90	0.00	30.135 
16:15	77.2	77.2	78.4	41	51.7	1	4	90	0.00	30.134 
16:20	77.2	77.2	78.5	45	54.2	1	5	90	0.00	30.134 
16:25	77.4	77.4	78.5	42	52.5	1	2	90	0.00	30.134 
16:30	77.9	77.9	78.8	43	53.6	0	2	112	0.00	30.131 
16:35	78.3	78.3	78.9	40	52.0	1	4	112	0.00	30.131 
16:40	78.3	78.3	78.8	38	50.6	1	5	135	0.00	30.131 
16:45	77.9	77.9	78.6	39	50.9	1	4	90	0.00	30.131 
16:50	77.6	77.6	78.6	41	52.0	0	2	90	0.00	30.131 
16:55	76.8	76.8	78.2	41	51.3	1	5	90	0.00	30.131 
17:00	76.0	76.0	77.9	43	51.9	1	3	112	0.00	30.135 
17:05	75.4	75.4	77.8	46	53.2	0	2	112	0.00	30.135 
17:10	75.1	75.1	77.7	47	53.5	0	1	112	0.00	30.135 
17:15	74.7	74.7	74.7	42	50.1	1	4	112	0.00	30.136 
17:20	74.7	74.7	74.7	43	50.7	1	3	112	0.00	30.136 
17:25	75.1	75.1	77.6	42	50.4	1	3	112	0.00	30.136 
17:30	75.6	75.6	77.7	41	50.2	0	4	112	0.00	30.136 
17:35	75.8	75.8	77.8	43	51.7	0	3	112	0.00	30.136 
17:40	76.0	76.0	77.9	43	51.9	1	2	112	0.00	30.136 
17:45	75.8	75.8	77.9	45	52.9	1	3	112	0.00	30.136 
17:50	76.0	76.0	77.9	43	51.9	1	4	112	0.00	30.136 
17:55	76.1	76.1	77.9	42	51.3	1	3	90	0.00	30.136 
18:00	76.1	76.1	78.0	43	52.0	1	6	90	0.00	30.137 
18:05	76.1	76.1	77.9	42	51.3	1	4	90	0.00	30.137 
18:10	75.8	75.8	77.9	45	52.9	1	4	90	0.00	30.137 
18:15	75.4	75.4	77.7	44	52.0	2	6	90	0.00	30.140 
18:20	75.3	75.3	77.7	44	51.9	1	3	90	0.00	30.140 
18:25	75.1	75.1	77.6	45	52.3	1	3	90	0.00	30.140 
18:30	74.9	74.9	74.9	44	51.5	1	3	90	0.00	30.140 
18:35	74.9	74.9	74.9	44	51.5	1	3	90	0.00	30.140 
18:40	74.9	74.9	74.9	48	53.9	0	3	90	0.00	30.140 
18:45	74.9	74.9	74.9	48	53.9	1	2	90	0.00	30.140 
18:50	74.7	74.7	74.7	52	55.9	0	2	90	0.00	30.140 
18:55	74.7	74.7	74.7	51	55.4	1	3	90	0.00	30.140 
19:00	74.4	74.4	74.4	52	55.6	1	2	135	0.00	30.144 
19:05	74.2	74.2	74.2	52	55.4	0	2	135	0.00	30.144 
19:10	74.0	74.0	74.0	53	55.8	0	3	135	0.00	30.144 
19:15	73.9	73.9	73.9	52	55.1	0	2	112	0.00	30.143 
19:20	73.5	73.5	73.5	53	55.3	0	1	112	0.00	30.143 
19:25	73.2	73.2	73.2	53	55.0	0	1	112	0.00	30.143 
19:30	73.0	73.0	73.0	54	55.4	0	1	112	0.00	30.146 
19:35	72.7	72.7	72.7	55	55.6	0	1	112	0.00	30.146 
19:40	72.5	72.5	72.5	56	55.9	0	0	---	0.00	30.146 
19:45	72.1	72.1	72.1	56	55.5	0	1	112	0.00	30.144 
19:50	72.0	72.0	72.0	57	55.9	0	0	---	0.00	30.144 
19:55	71.6	71.6	71.6	57	55.5	0	0	---	0.00	30.144 
20:00	71.5	71.5	71.5	58	55.9	0	0	---	0.00	30.150 
20:05	71.3	71.3	71.3	59	56.2	0	0	---	0.00	30.150 
20:10	71.1	71.1	71.1	59	56.0	0	0	---	0.00	30.150 
20:15	70.8	70.8	70.8	60	56.2	0	0	---	0.00	30.151 
20:20	70.6	70.6	70.6	59	55.6	0	1	112	0.00	30.151 
20:25	70.3	70.3	70.3	60	55.7	0	0	---	0.00	30.151 
20:30	70.1	70.1	70.1	60	55.6	0	0	---	0.00	30.151 
20:35	69.9	69.9	69.9	61	55.8	0	0	---	0.00	30.151 
20:40	69.6	69.6	69.6	61	55.5	0	0	---	0.00	30.151 
20:45	69.4	69.4	69.4	62	55.8	0	0	---	0.00	30.154 
20:50	68.9	68.9	68.9	63	55.8	0	0	---	0.00	30.154 
20:55	68.6	68.6	68.6	64	55.9	0	0	---	0.00	30.154 
21:00	68.1	68.1	68.1	65	55.9	0	0	---	0.00	30.160 
21:05	67.6	67.6	67.6	66	55.8	0	0	---	0.00	30.160 
21:10	67.1	67.1	67.1	67	55.8	0	0	---	0.00	30.160 
21:15	66.8	66.8	66.8	69	56.3	0	0	---	0.00	30.159 
21:20	66.3	66.3	66.3	69	55.8	0	0	---	0.00	30.159 
21:25	65.8	65.8	65.8	70	55.7	0	0	---	0.00	30.159 
21:30	65.5	65.5	65.5	71	55.8	0	0	---	0.00	30.162 
21:35	65.2	65.2	65.2	72	55.9	0	0	---	0.00	30.162 
21:40	65.0	65.0	65.0	73	56.1	0	0	---	0.00	30.162 
21:45	64.7	64.7	64.7	74	56.2	0	0	---	0.00	30.166 
21:50	64.5	64.5	64.5	74	56.0	0	0	---	0.00	30.166 
21:55	64.2	64.2	64.2	75	56.1	0	0	---	0.00	30.166 
22:00	64.0	64.0	64.0	76	56.3	0	0	---	0.00	30.169 
22:05	63.9	63.9	63.9	77	56.5	0	0	---	0.00	30.169 
22:10	63.5	63.5	63.5	77	56.2	0	0	---	0.00	30.169 
22:15	63.2	63.2	63.2	78	56.2	0	0	---	0.00	30.166 
22:20	63.1	63.1	63.1	79	56.5	0	0	---	0.00	30.166 
22:25	62.9	62.9	62.9	80	56.6	0	0	---	0.00	30.166 
22:30	62.7	62.7	62.7	81	56.8	0	0	---	0.00	30.169 
22:35	62.6	62.6	62.6	82	57.0	0	0	---	0.00	30.169 
22:40	62.3	62.3	62.3	82	56.7	0	0	---	0.00	30.169 
22:45	62.1	62.1	62.1	83	56.9	0	0	---	0.00	30.171 
22:50	62.0	62.0	62.0	83	56.8	0	0	---	0.00	30.171 
22:55	61.8	61.8	61.8	83	56.6	0	0	---	0.00	30.171 
23:00	61.6	61.6	61.6	83	56.4	0	0	---	0.00	30.170 
23:05	61.5	61.5	61.5	83	56.3	0	0	---	0.00	30.170 
23:10	61.3	61.3	61.3	84	56.4	0	0	---	0.00	30.170 
23:15	61.2	61.2	61.2	84	56.3	0	0	---	0.00	30.169 
23:20	61.0	61.0	61.0	84	56.1	0	0	---	0.00	30.169 
23:25	60.9	60.9	60.9	84	56.0	0	0	---	0.00	30.169 
23:30	60.7	60.7	60.7	85	56.2	0	0	---	0.00	30.173 
23:35	60.5	60.5	60.5	85	56.0	0	0	---	0.00	30.173 
23:40	60.4	60.4	60.4	85	55.9	0	0	---	0.00	30.173 
23:45	60.2	60.2	60.2	86	56.0	0	0	---	0.00	30.173 
23:50	60.1	60.1	60.1	86	55.9	0	0	---	0.00	30.173 
23:55	59.9	59.9	59.9	86	55.7	0	0	---	0.00	30.173 

CoCoRaHS
IN-AL-39
A2 Web Hosting
Creative Commons License
GoDaddy
search engine by freefind advanced

loaded 2018-11-16 00:06:47 • last modified 2010-11-18 10:43:29
Privacy PolicyDisclaimer
• wx.awcolley.com is powered by PmWiki v.2002016 •
• all content (unless otherwise noted) © 2018 A W Colley